Time;durP1;ratioP1;P1;durP2;ratioP2;P2;SDS_P1;SDS_P2;PMS_P1;PMS_P2;Temp;Humidity;BMP_temperature;BMP_pressure;BME280_temperature;BME280_humidity;BME280_pressure;Samples;Min_cycle;Max_cycle;Signal;HPM_P1;HPM_P2
2021/09/04 00:00:33;;;;;;;;;;;13.50;99.60;;;;;;5071914;28;20028;-71
2021/09/04 00:02:58;;;;;;;9.82;3.08;;;13.40;99.40;;;;;;5070329;28;19912;-71
2021/09/04 00:05:24;;;;;;;;;;;13.50;99.30;;;;;;5070474;28;20059;-70
2021/09/04 00:07:49;;;;;;;5.47;3.28;;;13.50;99.40;;;;;;5071624;28;19959;-71
2021/09/04 00:10:15;;;;;;;;;;;13.40;99.40;;;;;;5071740;28;20055;-70
2021/09/04 00:12:41;;;;;;;5.78;2.78;;;13.50;99.50;;;;;;5071249;28;19905;-70
2021/09/04 00:15:07;;;;;;;;;;;13.50;99.40;;;;;;5071539;28;20412;-70
2021/09/04 00:17:33;;;;;;;8.88;3.30;;;13.50;99.30;;;;;;5071072;28;19911;-71
2021/09/04 00:19:59;;;;;;;8.10;3.30;;;13.50;99.20;;;;;;5071042;28;20032;-70
2021/09/04 00:22:26;;;;;;;;;;;13.60;99.20;;;;;;5071771;28;20035;-69
2021/09/04 00:24:51;;;;;;;5.27;3.17;;;13.50;99.20;;;;;;5069682;28;19934;-72
2021/09/04 00:27:17;;;;;;;;;;;13.50;99.20;;;;;;5070778;28;20258;-72
2021/09/04 00:29:42;;;;;;;9.38;3.20;;;13.50;99.30;;;;;;5069594;28;19908;-71
2021/09/04 00:32:08;;;;;;;;;;;13.50;99.30;;;;;;5071326;28;20489;-72
2021/09/04 00:34:34;;;;;;;7.22;3.38;;;13.50;99.30;;;;;;5069361;28;19912;-72
2021/09/04 00:37:00;;;;;;;;;;;13.50;99.30;;;;;;5071219;28;20036;-72
2021/09/04 00:39:25;;;;;;;4.95;3.03;;;13.50;99.30;;;;;;5069120;28;20368;-71
2021/09/04 00:41:51;;;;;;;;;;;13.50;99.10;;;;;;5071154;28;20033;-69
2021/09/04 00:44:20;;;;;;;4.95;3.08;;;13.60;99.00;;;;;;5070603;28;19954;-69
2021/09/04 00:46:46;;;;;;;6.32;3.30;;;13.60;99.00;;;;;;5070604;28;20081;-69
2021/09/04 00:49:13;;;;;;;;;;;13.60;99.00;;;;;;5070639;28;20041;-69
2021/09/04 00:51:39;;;;;;;6.05;3.90;;;13.60;99.00;;;;;;5070493;28;19914;-70
2021/09/04 00:54:05;;;;;;;9.38;3.65;;;13.50;99.00;;;;;;5070158;28;20064;-70
2021/09/04 00:56:31;;;;;;;6.05;3.47;;;13.60;98.90;;;;;;5070356;28;20504;-69
2021/09/04 00:58:59;;;;;;;;;;;13.60;98.90;;;;;;5069642;28;20040;-70
2021/09/04 01:01:25;;;;;;;9.75;2.80;;;13.60;99.00;;;;;;5070086;28;19954;-69
2021/09/04 01:03:50;;;;;;;;;;;13.50;99.00;;;;;;5070538;28;20032;-70
2021/09/04 01:06:16;;;;;;;4.57;2.75;;;13.50;99.10;;;;;;5070333;28;19909;-69
2021/09/04 01:08:42;;;;;;;;;;;13.50;99.10;;;;;;5070636;28;20123;-70
2021/09/04 01:11:09;;;;;;;3.88;2.65;;;13.40;99.10;;;;;;5069982;28;20003;-70
2021/09/04 01:13:36;;;;;;;5.70;3.25;;;13.50;99.10;;;;;;5068727;28;20051;-70
2021/09/04 01:16:02;;;;;;;8.70;3.03;;;13.50;99.10;;;;;;5069900;28;20090;-70
2021/09/04 01:18:27;;;;;;;;;;;13.50;99.10;;;;;;5070358;28;20099;-70
2021/09/04 01:20:53;;;;;;;5.80;3.03;;;13.40;99.20;;;;;;5070014;28;20688;-70
2021/09/04 01:23:18;;;;;;;;;;;13.50;99.20;;;;;;5070096;28;20036;-69
2021/09/04 01:25:51;;;;;;;5.53;2.95;;;13.40;99.40;;;;;;5069828;28;19908;-69
2021/09/04 01:28:17;;;;;;;6.85;3.33;;;13.40;99.40;;;;;;5069790;28;20036;-69
2021/09/04 01:30:42;;;;;;;;;;;13.40;99.50;;;;;;5070123;28;20025;-70
2021/09/04 01:33:10;;;;;;;8.75;2.63;;;13.40;99.50;;;;;;5069408;28;19949;-71
2021/09/04 01:35:35;;;;;;;5.55;2.90;;;13.40;99.40;;;;;;5068127;28;20036;-70
2021/09/04 01:38:01;;;;;;;;;;;13.40;99.50;;;;;;5069669;28;20773;-70
2021/09/04 01:40:27;;;;;;;5.45;2.40;;;13.40;99.60;;;;;;5068914;28;20402;-70
2021/09/04 01:42:52;;;;;;;;;;;13.30;99.50;;;;;;5069843;28;20032;-70
2021/09/04 01:45:18;;;;;;;5.68;3.03;;;13.30;99.50;;;;;;5069214;28;19940;-70
2021/09/04 01:47:44;;;;;;;;;;;13.30;99.50;;;;;;5069816;28;20047;-70
2021/09/04 01:50:13;;;;;;;8.48;2.80;;;13.30;99.60;;;;;;5069073;28;20377;-69
2021/09/04 01:52:40;;;;;;;5.78;2.92;;;13.30;99.50;;;;;;5069232;28;20052;-70
2021/09/04 01:55:08;;;;;;;4.68;2.92;;;13.30;99.60;;;;;;5068744;28;20052;-70
2021/09/04 01:57:33;;;;;;;4.63;2.53;;;13.40;99.50;;;;;;5069246;28;20029;-70
2021/09/04 01:59:59;;;;;;;;;;;13.30;99.40;;;;;;5069472;28;20036;-68
2021/09/04 02:02:24;;;;;;;9.60;3.55;;;13.40;99.30;;;;;;5067960;28;19912;-69
2021/09/04 02:04:50;;;;;;;;;;;13.40;99.20;;;;;;5067267;28;20063;-68
2021/09/04 02:07:16;;;;;;;6.55;3.42;;;13.50;99.00;;;;;;5067542;28;19916;-68
2021/09/04 02:09:41;;;;;;;;;;;13.50;98.90;;;;;;5068517;28;20179;-68
2021/09/04 02:12:07;;;;;;;4.25;2.55;;;13.50;98.80;;;;;;5066488;28;19920;-68
2021/09/04 02:14:32;;;;;;;;;;;13.50;98.90;;;;;;5067014;28;20045;-69
2021/09/04 02:16:58;;;;;;;5.00;2.85;;;13.50;99.00;;;;;;5067744;28;20415;-69
2021/09/04 02:19:24;;;;;;;;;;;13.50;98.90;;;;;;5068092;28;20509;-68
2021/09/04 02:21:50;;;;;;;8.57;2.35;;;13.50;99.00;;;;;;5067671;28;19970;-69
2021/09/04 02:24:15;;;;;;;;;;;13.40;99.10;;;;;;5068200;28;20047;-69
2021/09/04 02:26:41;;;;;;;5.82;2.90;;;13.40;99.20;;;;;;5067910;28;20002;-69
2021/09/04 02:29:06;;;;;;;;;;;13.30;99.30;;;;;;5066158;28;20036;-69
2021/09/04 02:31:32;;;;;;;6.72;3.17;;;13.20;99.50;;;;;;5065806;28;19935;-69
2021/09/04 02:33:58;;;;;;;;;;;13.20;99.70;;;;;;5067967;28;20047;-69
2021/09/04 02:36:24;;;;;;;6.55;2.80;;;13.10;99.80;;;;;;5067606;28;20016;-69
2021/09/04 02:38:51;;;;;;;4.32;2.85;;;13.10;99.90;;;;;;5066056;28;20078;-68
2021/09/04 02:41:17;;;;;;;6.53;3.10;;;13.10;99.90;;;;;;5065828;28;20071;-71
2021/09/04 02:43:42;;;;;;;10.90;2.88;;;13.10;99.90;;;;;;5068548;28;20037;-69
2021/09/04 02:46:09;;;;;;;;;;;13.10;99.90;;;;;;5068948;28;20033;-70
2021/09/04 02:48:35;;;;;;;6.50;2.77;;;13.10;99.90;;;;;;5068558;28;19912;-70
2021/09/04 02:51:00;;;;;;;;;;;13.10;99.90;;;;;;5067463;28;20039;-69
2021/09/04 02:53:26;;;;;;;4.72;2.42;;;13.10;99.90;;;;;;5068159;28;19908;-69
2021/09/04 02:55:51;;;;;;;;;;;13.10;99.90;;;;;;5068644;28;20056;-70
2021/09/04 02:58:17;;;;;;;5.28;2.55;;;13.00;99.90;;;;;;5068287;28;19904;-69
2021/09/04 03:00:43;;;;;;;;;;;13.00;99.90;;;;;;5068664;28;20020;-70
2021/09/04 03:03:08;;;;;;;4.05;2.75;;;12.90;99.90;;;;;;5068304;28;19905;-70
2021/09/04 03:05:35;;;;;;;;;;;12.90;99.90;;;;;;5068561;28;20404;-70
2021/09/04 03:08:01;;;;;;;6.22;3.00;;;12.90;99.90;;;;;;5067012;28;20300;-70
2021/09/04 03:10:26;;;;;;;;;;;12.80;99.90;;;;;;5067647;28;20054;-70
2021/09/04 03:12:52;;;;;;;11.68;2.95;;;12.80;99.90;;;;;;5068290;28;19916;-69
2021/09/04 03:15:18;;;;;;;;;;;12.70;99.90;;;;;;5068443;28;20127;-71
2021/09/04 03:17:44;;;;;;;5.00;2.67;;;12.70;99.90;;;;;;5068076;28;19953;-70
2021/09/04 03:20:11;;;;;;;3.45;2.40;;;12.70;99.90;;;;;;5068247;28;20162;-70
2021/09/04 03:22:37;;;;;;;5.07;2.85;;;12.70;99.90;;;;;;5068140;28;20039;-71
2021/09/04 03:25:04;;;;;;;7.75;2.95;;;12.60;99.90;;;;;;5067933;28;20031;-71
2021/09/04 03:27:31;;;;;;;4.85;2.60;;;12.60;99.90;;;;;;5068072;28;20040;-70
2021/09/04 03:29:57;;;;;;;6.05;2.75;;;12.60;99.90;;;;;;5068094;28;20029;-71
2021/09/04 03:32:23;;;;;;;4.80;2.80;;;12.60;99.90;;;;;;5067981;28;20032;-71
2021/09/04 03:34:49;;;;;;;;;;;12.60;99.90;;;;;;5068339;28;20120;-71
2021/09/04 03:37:15;;;;;;;7.80;3.13;;;12.60;99.90;;;;;;5067965;28;19962;-71
2021/09/04 03:39:40;;;;;;;;;;;12.60;99.90;;;;;;5068553;28;20075;-70
2021/09/04 03:42:06;;;;;;;6.88;2.50;;;12.60;99.90;;;;;;5067995;28;20494;-71
2021/09/04 03:44:31;;;;;;;;;;;12.60;99.90;;;;;;5068435;28;20029;-71
2021/09/04 03:46:57;;;;;;;6.25;2.80;;;12.60;99.90;;;;;;5067988;28;19908;-71
2021/09/04 03:49:23;;;;;;;;;;;12.60;99.90;;;;;;5068253;28;20062;-71
2021/09/04 03:51:48;;;;;;;4.45;2.80;;;12.60;99.90;;;;;;5067705;28;19953;-71
2021/09/04 03:54:14;;;;;;;;;;;12.60;99.90;;;;;;5068065;28;20143;-71
2021/09/04 03:56:40;;;;;;;5.50;3.30;;;12.60;99.90;;;;;;5067804;28;19970;-71
2021/09/04 03:59:06;;;;;;;;;;;12.60;99.90;;;;;;5068076;28;20020;-71
2021/09/04 04:01:31;;;;;;;5.43;2.97;;;12.50;99.90;;;;;;5067929;28;19908;-70
2021/09/04 04:03:57;;;;;;;;;;;12.50;99.90;;;;;;5071818;28;20166;-71
2021/09/04 04:06:22;;;;;;;3.67;2.45;;;12.50;99.90;;;;;;5070100;28;19912;-70
2021/09/04 04:08:48;;;;;;;;;;;12.50;99.90;;;;;;5071767;28;20104;-71
2021/09/04 04:11:14;;;;;;;6.50;3.13;;;12.50;99.90;;;;;;5069874;28;19940;-71
2021/09/04 04:13:39;;;;;;;;;;;12.50;99.90;;;;;;5071535;28;20147;-71
2021/09/04 04:16:05;;;;;;;6.10;2.97;;;12.50;99.90;;;;;;5069747;28;19917;-71
2021/09/04 04:18:33;;;;;;;;;;;12.50;99.90;;;;;;5071674;28;20028;-70
2021/09/04 04:20:59;;;;;;;4.85;2.58;;;12.50;99.90;;;;;;5071102;28;19908;-71
2021/09/04 04:23:25;;;;;;;4.93;2.90;;;12.60;99.90;;;;;;5069698;28;20107;-71
2021/09/04 04:25:50;;;;;;;;;;;12.60;99.90;;;;;;5070066;28;20457;-70
2021/09/04 04:28:17;;;;;;;6.57;3.38;;;12.60;99.90;;;;;;5071011;28;19908;-71
2021/09/04 04:30:44;;;;;;;4.13;2.65;;;12.70;99.90;;;;;;5070863;28;20077;-71
2021/09/04 04:33:10;;;;;;;3.92;2.85;;;12.70;99.90;;;;;;5070681;28;20462;-70
2021/09/04 04:35:35;;;;;;;;;;;12.80;99.90;;;;;;5071198;28;20710;-70
2021/09/04 04:38:01;;;;;;;4.93;3.13;;;12.80;99.90;;;;;;5069443;28;19908;-70
2021/09/04 04:40:26;;;;;;;;;;;12.90;99.90;;;;;;5071091;28;20109;-70
2021/09/04 04:42:52;;;;;;;4.07;2.80;;;12.90;99.90;;;;;;5070588;28;19913;-71
2021/09/04 04:45:17;;;;;;;;;;;13.00;99.90;;;;;;5070738;28;20032;-70
2021/09/04 04:47:43;;;;;;;6.10;3.25;;;13.20;99.90;;;;;;5069005;28;19997;-71
2021/09/04 04:50:09;;;;;;;;;;;13.30;99.90;;;;;;5071026;28;20093;-71
2021/09/04 04:52:35;;;;;;;4.25;2.50;;;13.50;99.90;;;;;;5070413;28;19908;-70
2021/09/04 04:55:00;;;;;;;;;;;13.80;99.20;;;;;;5070687;28;20051;-71
2021/09/04 04:57:26;;;;;;;5.28;2.33;;;14.00;98.80;;;;;;5069052;28;19909;-72
2021/09/04 04:59:51;;;;;;;;;;;14.50;97.90;;;;;;5070868;28;20032;-71
2021/09/04 05:02:17;;;;;;;4.72;2.70;;;14.70;97.00;;;;;;5070316;28;19908;-71
2021/09/04 05:04:42;;;;;;;;;;;14.80;96.80;;;;;;5070590;28;20085;-70
2021/09/04 05:07:08;;;;;;;4.63;2.53;;;15.00;96.20;;;;;;5070166;28;20315;-71
2021/09/04 05:09:34;;;;;;;;;;;15.20;95.90;;;;;;5070592;28;20029;-71
2021/09/04 05:11:59;;;;;;;6.20;2.63;;;15.50;95.30;;;;;;5070231;28;19961;-71
2021/09/04 05:14:25;;;;;;;;;;;16.00;94.30;;;;;;5070519;28;20040;-71
2021/09/04 05:16:50;;;;;;;5.30;2.85;;;16.70;92.40;;;;;;5070066;28;20535;-71
2021/09/04 05:19:16;;;;;;;;;;;17.20;91.60;;;;;;5070229;28;20052;-72
2021/09/04 05:21:42;;;;;;;4.35;2.40;;;17.90;90.10;;;;;;5070061;28;19939;-72
2021/09/04 05:24:07;;;;;;;8.80;3.15;;;18.40;88.70;;;;;;5069811;28;20064;-72
2021/09/04 05:26:33;;;;;;;8.68;2.92;;;18.80;85.40;;;;;;5069508;28;20047;-71
2021/09/04 05:28:58;;;;;;;4.20;2.53;;;19.20;84.50;;;;;;5069857;28;20405;-71
2021/09/04 05:31:24;;;;;;;5.70;2.47;;;19.50;83.10;;;;;;5069516;28;20536;-72
2021/09/04 05:33:50;;;;;;;4.18;2.75;;;19.90;80.40;;;;;;5069575;28;20489;-71
2021/09/04 05:36:15;;;;;;;7.10;2.65;;;20.10;77.50;;;;;;5069529;28;20040;-72
2021/09/04 05:38:41;;;;;;;3.13;2.25;;;20.30;77.10;;;;;;5069448;28;20025;-71
2021/09/04 05:41:09;;;;;;;9.70;2.80;;;20.60;75.70;;;;;;5069258;28;20031;-72
2021/09/04 05:43:34;;;;;;;12.00;2.65;;;20.70;74.10;;;;;;5068098;28;20029;-71
2021/09/04 05:46:01;;;;;;;3.85;2.35;;;21.00;72.90;;;;;;5069612;28;20039;-72
2021/09/04 05:48:26;;;;;;;6.50;2.70;;;21.10;72.00;;;;;;5069291;28;20035;-72
2021/09/04 05:50:52;;;;;;;7.60;2.33;;;21.30;71.00;;;;;;5069322;28;20033;-72
2021/09/04 05:53:17;;;;;;;5.70;2.05;;;21.40;69.50;;;;;;5068987;28;20062;-72
2021/09/04 05:55:43;;;;;;;3.67;2.38;;;21.50;69.90;;;;;;5068939;28;20402;-73
2021/09/04 05:58:09;;;;;;;4.95;2.00;;;21.70;67.50;;;;;;5069185;28;20029;-72
2021/09/04 06:00:34;;;;;;;3.17;2.22;;;21.90;66.70;;;;;;5067809;28;20085;-72
2021/09/04 06:03:00;;;;;;;3.35;2.30;;;22.20;65.60;;;;;;5068972;28;20032;-70
2021/09/04 06:05:26;;;;;;;6.55;2.25;;;22.60;64.70;;;;;;5067649;28;20036;-70
2021/09/04 06:07:51;;;;;;;4.55;2.30;;;22.90;63.50;;;;;;5069071;28;20062;-70
2021/09/04 06:10:17;;;;;;;4.43;2.20;;;23.30;62.50;;;;;;5068848;28;20043;-70
2021/09/04 06:12:43;;;;;;;4.22;2.92;;;23.70;61.90;;;;;;5068723;28;20063;-69
2021/09/04 06:15:09;;;;;;;4.63;2.13;;;24.00;60.40;;;;;;5068731;28;20036;-71
2021/09/04 06:17:35;;;;;;;4.82;2.72;;;24.40;59.90;;;;;;5068741;28;20029;-70
2021/09/04 06:20:01;;;;;;;3.30;2.35;;;24.70;59.30;;;;;;5068719;28;20047;-69
2021/09/04 06:22:26;;;;;;;4.60;2.72;;;25.10;57.40;;;;;;5068785;28;20024;-70
2021/09/04 06:24:52;;;;;;;3.40;2.53;;;25.40;56.90;;;;;;5068218;28;20059;-71
2021/09/04 06:27:19;;;;;;;8.77;2.63;;;25.60;56.70;;;;;;5068377;28;20040;-70
2021/09/04 06:29:44;;;;;;;5.38;2.67;;;25.80;56.10;;;;;;5068647;28;20033;-70
2021/09/04 06:32:10;;;;;;;4.53;2.65;;;26.00;54.90;;;;;;5068759;28;20032;-70
2021/09/04 06:34:36;;;;;;;3.88;2.63;;;26.40;53.70;;;;;;5068537;28;20060;-69
2021/09/04 06:37:02;;;;;;;7.38;2.90;;;26.50;53.40;;;;;;5068607;28;20059;-70
2021/09/04 06:39:27;;;;;;;7.20;3.10;;;26.90;52.00;;;;;;5068417;28;20021;-69
2021/09/04 06:41:53;;;;;;;10.82;3.38;;;26.70;51.00;;;;;;5068378;28;20043;-70
2021/09/04 06:44:19;;;;;;;6.50;3.83;;;26.60;50.30;;;;;;5067076;28;20028;-70
2021/09/04 06:46:44;;;;;;;8.98;4.25;;;26.80;50.30;;;;;;5068343;28;20153;-69
2021/09/04 06:49:10;;;;;;;13.00;4.38;;;27.30;49.30;;;;;;5068353;28;20031;-70
2021/09/04 06:51:35;;;;;;;7.28;3.90;;;27.40;48.60;;;;;;5068420;28;20511;-70
2021/09/04 06:54:01;;;;;;;6.68;3.92;;;27.40;48.00;;;;;;5067776;28;20075;-71
2021/09/04 06:56:27;;;;;;;11.57;4.10;;;27.60;47.70;;;;;;5068136;28;20127;-70
2021/09/04 06:58:52;;;;;;;6.60;3.92;;;28.10;46.80;;;;;;5066977;28;20115;-70
2021/09/04 07:01:18;;;;;;;9.05;3.92;;;28.40;46.00;;;;;;5068166;28;20037;-70
2021/09/04 07:03:44;;;;;;;11.85;5.35;;;28.50;46.40;;;;;;5068540;28;20056;-69
2021/09/04 07:06:10;;;;;;;9.82;4.07;;;28.70;46.00;;;;;;5068155;28;20456;-70
2021/09/04 07:08:36;;;;;;;14.85;4.47;;;29.10;45.10;;;;;;5068158;28;20408;-71
2021/09/04 07:11:02;;;;;;;12.02;4.22;;;29.20;44.40;;;;;;5068218;28;20115;-70
2021/09/04 07:13:27;;;;;;;11.60;3.95;;;29.20;43.80;;;;;;5067952;28;20057;-70
2021/09/04 07:15:53;;;;;;;9.13;4.13;;;29.40;43.10;;;;;;5067997;28;20068;-71
2021/09/04 07:18:22;;;;;;;8.57;3.92;;;29.80;43.30;;;;;;5068268;28;20029;-69
2021/09/04 07:20:48;;;;;;;11.75;4.15;;;29.80;43.00;;;;;;5068144;28;20559;-70
2021/09/04 07:23:13;;;;;;;10.15;3.80;;;29.80;43.30;;;;;;5067881;28;20029;-71
2021/09/04 07:25:39;;;;;;;8.93;3.55;;;30.00;43.30;;;;;;5068377;28;20028;-70
2021/09/04 07:28:06;;;;;;;8.13;4.13;;;30.20;42.50;;;;;;5068122;28;20028;-69
2021/09/04 07:30:33;;;;;;;13.68;3.35;;;30.40;42.40;;;;;;5067076;28;20369;-70
2021/09/04 07:32:59;;;;;;;11.93;3.13;;;30.50;42.40;;;;;;5068162;28;20033;-70
2021/09/04 07:35:25;;;;;;;11.98;3.42;;;30.90;41.60;;;;;;5067727;28;20044;-70
2021/09/04 07:37:51;;;;;;;6.35;3.25;;;31.20;40.90;;;;;;5068790;28;20396;-70
2021/09/04 07:40:16;;;;;;;8.05;3.85;;;31.40;40.80;;;;;;5071720;28;20485;-70
2021/09/04 07:42:42;;;;;;;11.55;3.63;;;31.70;39.40;;;;;;5071784;28;20024;-70
2021/09/04 07:45:08;;;;;;;11.13;3.63;;;31.90;39.40;;;;;;5071461;28;20032;-70
2021/09/04 07:47:34;;;;;;;5.90;3.00;;;32.00;39.00;;;;;;5071538;28;20043;-70
2021/09/04 07:50:00;;;;;;;15.30;3.30;;;32.60;38.40;;;;;;5071591;28;20036;-71
2021/09/04 07:52:25;;;;;;;6.93;3.78;;;32.40;37.70;;;;;;5070109;28;20119;-71
2021/09/04 07:54:51;;;;;;;7.13;3.60;;;32.40;37.60;;;;;;5071265;28;20052;-71
2021/09/04 07:57:17;;;;;;;9.20;3.65;;;32.30;37.10;;;;;;5069866;28;20139;-70
2021/09/04 07:59:43;;;;;;;5.00;2.97;;;32.60;36.60;;;;;;5071269;28;20056;-70
2021/09/04 08:02:08;;;;;;;11.75;3.42;;;33.10;36.00;;;;;;5071321;28;20032;-70
2021/09/04 08:04:34;;;;;;;6.35;3.15;;;33.20;36.00;;;;;;5069929;28;20039;-71
2021/09/04 08:07:00;;;;;;;8.13;3.45;;;33.60;35.50;;;;;;5071358;28;20039;-70
2021/09/04 08:09:26;;;;;;;7.15;3.58;;;34.00;34.60;;;;;;5071152;28;20092;-71
2021/09/04 08:11:52;;;;;;;6.53;3.00;;;34.30;34.30;;;;;;5071064;28;20111;-70
2021/09/04 08:14:17;;;;;;;5.78;3.55;;;34.10;33.60;;;;;;5070889;28;20451;-70
2021/09/04 08:16:44;;;;;;;7.40;3.47;;;33.90;33.90;;;;;;5071011;28;20398;-70
2021/09/04 08:19:09;;;;;;;7.63;3.20;;;33.90;33.40;;;;;;5069658;28;20032;-70
2021/09/04 08:21:35;;;;;;;11.35;3.90;;;34.00;33.80;;;;;;5069648;28;20077;-70
2021/09/04 08:24:01;;;;;;;4.88;3.00;;;34.00;33.40;;;;;;5070866;28;20135;-70
2021/09/04 08:26:26;;;;;;;4.75;2.97;;;34.20;33.30;;;;;;5070688;28;20031;-70
2021/09/04 08:28:52;;;;;;;5.40;3.42;;;34.00;33.00;;;;;;5069517;28;20039;-70
2021/09/04 08:31:18;;;;;;;4.68;3.13;;;33.90;33.10;;;;;;5070678;28;20078;-70
2021/09/04 08:33:43;;;;;;;8.60;3.55;;;33.90;33.60;;;;;;5070575;28;20040;-70
2021/09/04 08:36:09;;;;;;;9.32;4.00;;;34.00;33.50;;;;;;5069189;28;20036;-70
2021/09/04 08:38:35;;;;;;;4.93;3.35;;;34.10;32.70;;;;;;5070585;28;20031;-71
2021/09/04 08:41:00;;;;;;;5.38;3.17;;;33.90;32.30;;;;;;5070617;28;20161;-70
2021/09/04 08:43:26;;;;;;;5.65;3.20;;;33.90;32.90;;;;;;5070410;28;20081;-71
2021/09/04 08:45:52;;;;;;;7.18;3.38;;;33.70;33.20;;;;;;5070580;28;20098;-71
2021/09/04 08:48:20;;;;;;;5.15;3.67;;;33.80;33.00;;;;;;5068993;28;20786;-70
2021/09/04 08:50:46;;;;;;;5.63;3.05;;;34.00;33.60;;;;;;5070364;28;20115;-70
2021/09/04 08:53:12;;;;;;;4.72;3.25;;;34.10;32.10;;;;;;5069134;28;20067;-70
2021/09/04 08:55:38;;;;;;;3.83;2.78;;;33.90;32.20;;;;;;5070223;28;20080;-70
2021/09/04 08:58:04;;;;;;;7.13;3.25;;;34.10;32.40;;;;;;5070357;28;20070;-70
2021/09/04 09:00:34;;;;;;;8.32;3.22;;;34.30;32.10;;;;;;5070244;28;20369;-70
2021/09/04 09:03:00;;;;;;;3.75;2.80;;;34.00;32.30;;;;;;5070292;28;20027;-70
2021/09/04 09:05:36;;;;;;;4.32;3.50;;;34.10;32.30;;;;;;5070178;28;20025;-70
2021/09/04 09:08:02;;;;;;;4.80;3.30;;;34.30;31.80;;;;;;5070147;28;20920;-70
2021/09/04 09:10:35;;;;;;;3.95;2.95;;;34.30;32.00;;;;;;5070079;28;20066;-69
2021/09/04 09:13:00;;;;;;;10.43;3.15;;;34.60;31.20;;;;;;5069899;28;20024;-70
2021/09/04 09:15:32;;;;;;;4.35;3.30;;;34.40;31.00;;;;;;5069733;28;20046;-70
2021/09/04 09:18:10;;;;;;;3.78;3.28;;;34.50;31.90;;;;;;5068528;28;20025;-70
2021/09/04 09:20:38;;;;;;;4.15;2.90;;;34.60;31.70;;;;;;5069938;28;20027;-70
2021/09/04 09:23:17;;;;;;;3.95;2.92;;;34.80;30.80;;;;;;5069869;28;20100;-70
2021/09/04 09:25:45;;;;;;;3.55;2.47;;;34.60;30.30;;;;;;5069648;28;20021;-70
2021/09/04 09:28:15;;;;;;;3.88;2.58;;;34.50;29.60;;;;;;5069669;28;20076;-70
2021/09/04 09:30:46;;;;;;;7.07;2.70;;;34.60;29.80;;;;;;5069595;28;20052;-70
2021/09/04 09:33:14;;;;;;;12.85;3.20;;;34.90;29.70;;;;;;5069550;28;20032;-69
2021/09/04 09:35:51;;;;;;;3.65;2.47;;;34.60;30.50;;;;;;5069890;28;20041;-70
2021/09/04 09:38:19;;;;;;;3.35;2.65;;;34.60;30.40;;;;;;5069573;28;20622;-70
2021/09/04 09:40:46;;;;;;;3.10;2.33;;;34.70;30.10;;;;;;5069486;28;20108;-70
2021/09/04 09:43:17;;;;;;;4.25;2.50;;;34.60;30.30;;;;;;5069326;28;20493;-70
2021/09/04 09:45:47;;;;;;;4.60;2.40;;;34.70;29.70;;;;;;5069341;28;20031;-70
2021/09/04 09:48:20;;;;;;;3.55;2.35;;;34.00;30.10;;;;;;5069368;28;20032;-70
2021/09/04 09:50:47;;;;;;;5.30;2.65;;;33.80;31.00;;;;;;5069367;28;20500;-69
2021/09/04 09:53:12;;;;;;;3.30;2.17;;;34.00;30.60;;;;;;5069100;28;20024;-70
2021/09/04 09:55:44;;;;;;;4.00;2.70;;;34.10;30.70;;;;;;5069152;28;20102;-71
2021/09/04 09:58:10;;;;;;;3.97;2.60;;;34.40;30.00;;;;;;5069063;28;20679;-70
2021/09/04 10:00:36;;;;;;;2.92;2.58;;;34.40;30.20;;;;;;5068367;28;20021;-70
2021/09/04 10:03:05;;;;;;;3.55;2.60;;;34.80;29.50;;;;;;5069029;28;20090;-70
2021/09/04 10:05:30;;;;;;;4.80;2.75;;;34.80;29.90;;;;;;5068987;28;20033;-70
2021/09/04 10:07:58;;;;;;;3.30;2.90;;;34.90;29.80;;;;;;5067483;28;20029;-71
2021/09/04 10:10:29;;;;;;;4.03;2.85;;;34.90;29.80;;;;;;5068859;28;20031;-70
2021/09/04 10:12:55;;;;;;;6.22;2.42;;;35.40;29.20;;;;;;5068777;28;20087;-70
2021/09/04 10:15:29;;;;;;;4.25;2.78;;;35.60;29.40;;;;;;5068578;28;20435;-70
2021/09/04 10:17:58;;;;;;;5.60;2.42;;;35.40;29.00;;;;;;5068732;28;20036;-70
2021/09/04 10:20:26;;;;;;;3.53;2.88;;;35.00;28.30;;;;;;5068685;28;20020;-70
2021/09/04 10:23:09;;;;;;;3.78;2.25;;;33.60;30.00;;;;;;5067311;28;20032;-70
2021/09/04 10:25:35;;;;;;;6.68;2.33;;;32.80;31.30;;;;;;5067329;28;20396;-70
2021/09/04 10:28:02;;;;;;;8.40;2.60;;;31.90;31.80;;;;;;5068838;28;20035;-70
2021/09/04 10:30:29;;;;;;;4.47;2.50;;;31.50;32.90;;;;;;5067129;28;20439;-72
2021/09/04 10:33:11;;;;;;;5.60;2.60;;;31.00;33.40;;;;;;5068600;28;20048;-71
2021/09/04 10:35:55;;;;;;;3.17;2.85;;;30.60;34.80;;;;;;5068371;28;20036;-71
2021/09/04 10:38:21;;;;;;;3.80;2.60;;;30.20;34.60;;;;;;5068483;28;20035;-71
2021/09/04 10:41:10;;;;;;;3.30;2.45;;;29.90;34.00;;;;;;5068489;28;20032;-71
2021/09/04 10:43:40;;;;;;;4.13;2.65;;;29.80;34.70;;;;;;5068299;28;20036;-72
2021/09/04 10:46:06;;;;;;;6.68;2.83;;;29.80;33.70;;;;;;5068479;28;20094;-71
2021/09/04 10:48:37;;;;;;;4.50;2.60;;;29.60;34.00;;;;;;5068411;28;20038;-71
2021/09/04 10:51:04;;;;;;;4.43;2.88;;;29.40;34.60;;;;;;5068303;28;20420;-72
2021/09/04 10:53:50;;;;;;;4.45;3.00;;;29.20;34.50;;;;;;5068373;28;20600;-71
2021/09/04 10:56:16;;;;;;;;;;;29.10;34.50;;;;;;5068794;28;20049;-71
2021/09/04 10:58:42;;;;;;;6.20;2.73;;;28.60;34.40;;;;;;5068293;28;19919;-71
2021/09/04 11:01:07;;;;;;;3.03;2.65;;;28.40;35.80;;;;;;5068215;28;20530;-72
2021/09/04 11:03:41;;;;;;;4.78;2.42;;;28.20;35.80;;;;;;5066837;28;20048;-71
2021/09/04 11:06:08;;;;;;;5.15;3.45;;;28.30;37.10;;;;;;5067130;28;20511;-72
2021/09/04 11:08:43;;;;;;;6.05;2.58;;;28.30;37.10;;;;;;5068166;28;20028;-71
2021/09/04 11:11:17;;;;;;;3.95;3.13;;;28.30;36.50;;;;;;5068005;28;20105;-70
2021/09/04 11:13:49;;;;;;;4.25;2.78;;;28.20;35.60;;;;;;5072205;28;20040;-71
2021/09/04 11:16:36;;;;;;;3.78;2.67;;;28.20;36.10;;;;;;5070983;28;20047;-72
2021/09/04 11:19:22;;;;;;;3.65;2.15;;;28.20;36.50;;;;;;5072265;28;20525;-71
2021/09/04 11:22:14;;;;;;;5.07;2.53;;;28.20;36.90;;;;;;5072253;28;20021;-71
2021/09/04 11:24:41;;;;;;;4.65;2.65;;;28.20;36.50;;;;;;5068332;28;20049;-71
2021/09/04 11:27:14;;;;;;;5.85;3.17;;;28.20;36.60;;;;;;5071946;28;20067;-71
2021/09/04 11:29:48;;;;;;;3.42;2.30;;;28.30;36.70;;;;;;5072067;28;20809;-71
2021/09/04 11:32:16;;;;;;;4.57;2.28;;;28.30;35.70;;;;;;5072113;28;20469;-71
2021/09/04 11:34:55;;;;;;;11.07;3.38;;;28.40;36.10;;;;;;5071816;28;20086;-71
2021/09/04 11:37:52;;;;;;;4.75;2.45;;;28.40;36.30;;;;;;5071632;28;20648;-72
2021/09/04 11:40:25;;;;;;;3.58;2.63;;;28.40;36.40;;;;;;5054061;28;20517;-71
2021/09/04 11:42:51;;;;;;;4.47;2.72;;;28.30;35.60;;;;;;5071678;28;20051;-71
2021/09/04 11:45:22;;;;;;;3.15;2.40;;;28.10;36.30;;;;;;5070158;28;20051;-71
2021/09/04 11:47:52;;;;;;;6.68;2.92;;;28.00;37.10;;;;;;5071499;28;20494;-72
2021/09/04 11:50:22;;;;;;;6.57;3.03;;;27.90;37.00;;;;;;5071672;28;20035;-72
2021/09/04 11:52:49;;;;;;;7.03;2.85;;;27.80;37.10;;;;;;5071443;28;20584;-71
2021/09/04 11:55:18;;;;;;;10.50;3.90;;;27.60;36.20;;;;;;5071008;28;20036;-71
2021/09/04 11:57:46;;;;;;;5.30;3.15;;;27.30;36.80;;;;;;5071359;28;20032;-71
2021/09/04 12:00:15;;;;;;;3.40;2.60;;;27.20;37.10;;;;;;5071531;28;20040;-70
2021/09/04 12:03:01;;;;;;;3.80;2.45;;;27.20;37.80;;;;;;5071383;28;20055;-71
2021/09/04 12:05:29;;;;;;;3.85;2.60;;;27.20;37.70;;;;;;5070678;28;20033;-71
2021/09/04 12:08:07;;;;;;;5.60;3.13;;;27.20;37.50;;;;;;5070231;28;20044;-70
2021/09/04 12:10:38;;;;;;;3.50;2.47;;;27.30;38.10;;;;;;5071186;28;20384;-71
2021/09/04 12:13:06;;;;;;;4.57;2.83;;;27.50;37.50;;;;;;5071138;28;20033;-71
2021/09/04 12:15:34;;;;;;;6.10;3.45;;;27.70;38.10;;;;;;5071032;28;20047;-69
2021/09/04 12:18:01;;;;;;;3.72;2.90;;;27.90;38.10;;;;;;5071134;28;20382;-68
2021/09/04 12:20:32;;;;;;;4.53;3.03;;;28.10;37.80;;;;;;5071011;28;20032;-69
2021/09/04 12:23:10;;;;;;;4.90;2.88;;;28.20;38.00;;;;;;5068850;28;20040;-70
2021/09/04 12:25:35;;;;;;;3.83;2.85;;;28.20;37.10;;;;;;5071021;28;20047;-69
2021/09/04 12:28:06;;;;;;;3.28;2.65;;;28.10;36.60;;;;;;5070857;28;20493;-69
2021/09/04 12:30:34;;;;;;;6.68;2.70;;;28.00;35.90;;;;;;5070873;28;20504;-69
2021/09/04 12:33:05;;;;;;;3.75;2.88;;;27.90;37.30;;;;;;5070622;28;20024;-71
2021/09/04 12:36:08;;;;;;;6.05;2.90;;;27.80;37.20;;;;;;5070653;28;20040;-70
2021/09/04 12:38:42;;;;;;;3.80;2.97;;;27.60;37.20;;;;;;4988109;28;20057;-72
2021/09/04 12:41:09;;;;;;;3.72;2.50;;;27.30;37.60;;;;;;5065701;28;20060;-71
2021/09/04 12:44:07;;;;;;;8.18;3.60;;;27.10;37.10;;;;;;5090409;28;20032;-71
2021/09/04 12:46:36;;;;;;;5.00;2.60;;;27.00;38.60;;;;;;5079933;28;20023;-72
2021/09/04 12:49:26;;;;;;;3.92;2.67;;;26.80;37.90;;;;;;5087719;28;20040;-71
2021/09/04 12:52:13;;;;;;;5.57;3.30;;;26.70;37.30;;;;;;5089472;28;20081;-70
2021/09/04 12:54:54;;;;;;;3.88;2.60;;;26.70;38.10;;;;;;5090468;28;20048;-71
2021/09/04 12:57:29;;;;;;;9.35;3.00;;;26.60;38.00;;;;;;5090599;28;20485;-71
2021/09/04 12:59:59;;;;;;;4.05;2.92;;;26.50;39.50;;;;;;5090381;28;20028;-70
2021/09/04 13:02:36;;;;;;;5.07;2.97;;;26.60;39.40;;;;;;5089101;28;20035;-71